Terminal Aerodrome Forecast
Issued by NWS

Home | Current Version | Previous Version | Text Only | Print | Product List | Glossary On
Versions: 1 2 3 4 5 6 7 8 9 10 11 12 13
635
FTUS46 KHNX 271124
TAFBFL
TAF
KBFL 271124Z 2712/2812 VRB04KT P6SM SCT030 OVC060
     FM271400 32007KT P6SM SCT030 OVC060
      TEMPO 2714/2718 -SHRA BKN030
     FM271800 31015G26KT P6SM BKN030
     FM280300 34010KT P6SM SCT030=

USA.gov is the U.S. government's official web portal to all federal, state and local government web resources and services.